Estación Meteorológica de la Universidad de Murcia
Estación Meteorológica de la Universidad de Murcia
Universidad de Murcia
 

Temperatura ambienteTemperatura ambiente

 

Máxima: 23 ºC a las 17:41:00 del día 23/10/2021
Mínima: 12,1 ºC a las 07:59:00 del día 23/10/2021

||Temperatura máxima últimos meses|| ---- ||Temperatura mínima últimos meses||


Temperatura máxima

  • 1 - 23 ºC del día 23/10/2021
  • 2 - 20,7 ºC del día 22/10/2021
  • 3 - 30,3 ºC del día 21/10/2021
  • 4 - 27,5 ºC del día 20/10/2021
  • 5 - 26 ºC del día 19/10/2021
  • 6 - 26,3 ºC del día 18/10/2021
  • 7 - 27,5 ºC del día 17/10/2021
  • 8 - 28,4 ºC del día 16/10/2021
  • 9 - 27 ºC del día 15/10/2021
  • 10 - 26,6 ºC del día 14/10/2021
  • 11 - 26,5 ºC del día 13/10/2021
  • 12 - 26 ºC del día 12/10/2021
  • 13 - 26,1 ºC del día 11/10/2021
  • 14 - 26,7 ºC del día 10/10/2021
  • 15 - 27 ºC del día 09/10/2021
  • 16 - 27,3 ºC del día 08/10/2021
  • 17 - 27,9 ºC del día 07/10/2021
  • 18 - 27,9 ºC del día 06/10/2021
  • 19 - 28,3 ºC del día 05/10/2021
  • 20 - 23,2 ºC del día 04/10/2021
  • 21 - 29,9 ºC del día 03/10/2021
  • 22 - 29,5 ºC del día 02/10/2021
  • 23 - 29,1 ºC del día 01/10/2021
  • 24 - 28,8 ºC del día 30/09/2021
  • 25 - 31,1 ºC del día 29/09/2021
  • 26 - 29,8 ºC del día 28/09/2021
  • 27 - 32,2 ºC del día 27/09/2021
  • 28 - 30 ºC del día 26/09/2021
  • 29 - 31,2 ºC del día 25/09/2021
  • 30 - 30,3 ºC del día 24/09/2021
  • 31 - 29,3 ºC del día 23/09/2021
  • 32 - 26,2 ºC del día 22/09/2021
  • 33 - 25,4 ºC del día 21/09/2021
  • 34 - 30 ºC del día 20/09/2021
  • 35 - 29,7 ºC del día 19/09/2021
  • 36 - 32,8 ºC del día 18/09/2021
  • 37 - 31,7 ºC del día 17/09/2021
  • 38 - 32 ºC del día 16/09/2021
  • 39 - 33 ºC del día 15/09/2021
  • 40 - 30,4 ºC del día 14/09/2021
  • 41 - 27,7 ºC del día 13/09/2021
  • 42 - 33,5 ºC del día 12/09/2021
  • 43 - 33,3 ºC del día 11/09/2021
  • 44 - 34,7 ºC del día 10/09/2021
  • 45 - 33,3 ºC del día 09/09/2021
  • 46 - 34,8 ºC del día 08/09/2021
  • 47 - 33 ºC del día 07/09/2021
  • 48 - 32,6 ºC del día 06/09/2021
  • 49 - 32,5 ºC del día 05/09/2021
  • 50 - 32,3 ºC del día 04/09/2021
  • 51 - 32,7 ºC del día 03/09/2021
  • 52 - 30,5 ºC del día 02/09/2021
  • 53 - 29,5 ºC del día 01/09/2021
  • 54 - 30,7 ºC del día 31/08/2021
  • 55 - 33,4 ºC del día 30/08/2021
  • 56 - 34,5 ºC del día 29/08/2021
  • 57 - 36,6 ºC del día 28/08/2021
  • 58 - 37,4 ºC del día 27/08/2021
  • 59 - 34,4 ºC del día 26/08/2021

||Volver al inicio de la página||


Temperatura mínima

  • 1 - 12,1 ºC del día 23/10/2021
  • 2 - 14,8 ºC del día 22/10/2021
  • 3 - 14,7 ºC del día 21/10/2021
  • 4 - 13,7 ºC del día 20/10/2021
  • 5 - 15,5 ºC del día 19/10/2021
  • 6 - 15,5 ºC del día 18/10/2021
  • 7 - 18 ºC del día 17/10/2021
  • 8 - 13,6 ºC del día 16/10/2021
  • 9 - 12,9 ºC del día 15/10/2021
  • 10 - 13,7 ºC del día 14/10/2021
  • 11 - 14,3 ºC del día 13/10/2021
  • 12 - 15,9 ºC del día 12/10/2021
  • 13 - 16,7 ºC del día 11/10/2021
  • 14 - 15,4 ºC del día 10/10/2021
  • 15 - 16,7 ºC del día 09/10/2021
  • 16 - 16,6 ºC del día 08/10/2021
  • 17 - 18,9 ºC del día 07/10/2021
  • 18 - 16,1 ºC del día 06/10/2021
  • 19 - 12,1 ºC del día 05/10/2021
  • 20 - 12,6 ºC del día 04/10/2021
  • 21 - 16,6 ºC del día 03/10/2021
  • 22 - 18,3 ºC del día 02/10/2021
  • 23 - 17,8 ºC del día 01/10/2021
  • 24 - 19,9 ºC del día 30/09/2021
  • 25 - 17,4 ºC del día 29/09/2021
  • 26 - 15,7 ºC del día 28/09/2021
  • 27 - 17,4 ºC del día 27/09/2021
  • 28 - 17,5 ºC del día 26/09/2021
  • 29 - 22,2 ºC del día 25/09/2021
  • 30 - 21,3 ºC del día 24/09/2021
  • 31 - 18,3 ºC del día 23/09/2021
  • 32 - 17,3 ºC del día 22/09/2021
  • 33 - 16,2 ºC del día 21/09/2021
  • 34 - 19 ºC del día 20/09/2021
  • 35 - 18,5 ºC del día 19/09/2021
  • 36 - 19 ºC del día 18/09/2021
  • 37 - 19 ºC del día 17/09/2021
  • 38 - 19,6 ºC del día 16/09/2021
  • 39 - 20,1 ºC del día 15/09/2021
  • 40 - 21 ºC del día 14/09/2021
  • 41 - 21,3 ºC del día 13/09/2021
  • 42 - 19,1 ºC del día 12/09/2021
  • 43 - 20,4 ºC del día 11/09/2021
  • 44 - 21,3 ºC del día 10/09/2021
  • 45 - 21 ºC del día 09/09/2021
  • 46 - 20,1 ºC del día 08/09/2021
  • 47 - 20,6 ºC del día 07/09/2021
  • 48 - 20,9 ºC del día 06/09/2021
  • 49 - 20,2 ºC del día 05/09/2021
  • 50 - 20,3 ºC del día 04/09/2021
  • 51 - 21,5 ºC del día 03/09/2021
  • 52 - 19,9 ºC del día 02/09/2021
  • 53 - 22,9 ºC del día 01/09/2021
  • 54 - 23,3 ºC del día 31/08/2021
  • 55 - 22,3 ºC del día 30/08/2021
  • 56 - 22,4 ºC del día 29/08/2021
  • 57 - 21,8 ºC del día 28/08/2021
  • 58 - 20,4 ºC del día 27/08/2021
  • 59 - 20,8 ºC del día 26/08/2021

 

|| Humedad relativa|| Velocidad y dirección del viento|| Precipitación|| Radiación Solar Global y PAR|| Temperatura y humedad del suelo|| Presión atmosférica|| Más información|| Volver a la página principal|| Volver al inicio de la página||


Estación Meteorológica de la Universidad de Murcia
http://estacion.um.es/
Informacion actualizada a: 25/10/2021 a las 12:04:00